TOURFACTS.DK  
Stats and Facts from Tour de France.

Tour de France 2019 starts in 324 days
  Riders   Stages   Teams   Summits   Yearly  


 
Search by year

After 2018 - Stage 21:
 15000 starters.
  5165 different riders.
  638 teams.
  2253 stages.
  456 restdays.
  442940.60 km.
  5684 abandonnees.


Top 3
GC
Geraint Thomas83:17:13
Tom Dumoulin83:19:04
Christopher Froome83:19:37
Climb
Julian Alaphilippe170 pt.
Warren Barguil91 pt.
Rafal Majka76 pt.
Sprint
Peter Sagan477 pt.
Alexander Kristoff246 pt.
Arnaud Démare203 pt.
Youth
Pierre-Roger Latou..83:39:26
Egan Bernal83:45:05
Guillaume Martin84:01:31
Facts from Tour de France 1975
  |   Stages.  |   Stage winners.  |   Days in yellow  |   Average speed.  |   Route.  |   Teams.  |   All riders.  |   Rookies.  |  

  |   Withdrawls.  |   GC.  |   Polka  |   Green  |   White  |   Summits. (In tour)  |   Miscellaneous.  |  

Stage 10 on 07 - 07 - 1975
         Owning:    Eddy Merckx    
Pick a stage:  Pro 1a 1b 2 3 4 5 6 7 8 9a 9b 10 11 12 13 14 15 16 17 18 19 20 21 22
  AuchPau | Dist: 206.00 km.
Cat: 1Col du SoulorBELLucien Van Impe20 points 
Cat: 3Côte d'EsquillotITARoberto Poggiali8 points 

Average speed for all riders in stage:  33,345 km./hr.
    Place:Name:Team:Time:Km/h:
1
ITAFelice GimondiITABianchi-Campagnolo05:59:52  +  00:00:00=34,346 
2
ITARoberto PoggialiITAFilotex05:59:54  +  00:00:02=34,343 
3
FRAJean-Pierre DanguillaumeFRAPeugeot-BP-Michelin05:59:59  +  00:00:07=34,335 
44 FRABernard ThevenetFRAPeugeot-BP-Michelin06:00:00  +  00:00:08=34,333 
55 ITAFrancesco MoserITAFilotex06:00:00  +  00:00:08=34,333 
66 FRAYves HézardFRAGan-Mercier-Hutchinson06:00:00  +  00:00:08=34,333 
77 ITAGiovanni BattaglinITAJollyceramica06:00:00  +  00:00:08=34,333 
88 BELEddy MerckxITAMolteni06:00:00  +  00:00:08=34,333 
99 BELLucien Van ImpeFRAGitane-Campagnolo06:00:00  +  00:00:08=34,333 
1010 FRARaymond PoulidorFRAGan-Mercier-Hutchinson06:00:00  +  00:00:08=34,333 
1111 ESPFrancisco GaldosESPKas-Kaskol06:00:00  +  00:00:08=34,333 
1212 SUIJosef FuchsITAFilotex06:00:00  +  00:00:08=34,333 
1313 ESPVicente LopezESPKas-Kaskol06:00:00  +  00:00:08=34,333 
1414 ESPPedro TorresESPSuper Ser06:00:00  +  00:00:08=34,333 
1515 ESPLuis OcañaESPSuper Ser06:00:00  +  00:00:08=34,333 
1616 NEDJoop ZoetemelkFRAGan-Mercier-Hutchinson06:00:00  +  00:00:08=34,333 
1717 FRARaymond DelisleFRAPeugeot-BP-Michelin06:00:00  +  00:00:08=34,333 
1818 ESPAndré RomeroFRAJobo-Wolber06:00:00  +  00:00:08=34,333 
1919 FRAAlain SantyFRAGitane-Campagnolo06:00:00  +  00:00:08=34,333 
2020 BELEduard JanssensITAMolteni06:00:00  +  00:00:08=34,333 
2121 FRAFerdinand JulienPRTSporting-Sottomayor06:00:00  +  00:00:08=34,333 
2222 BELJos De SchoenmaeckerITAMolteni06:04:50  +  00:04:58=33,878 
2323 ESPMariano MartinezFRAGitane-Campagnolo06:04:50  +  00:04:58=33,878 
2424 FRABernard BourreauFRAPeugeot-BP-Michelin06:04:50  +  00:04:58=33,878 
2525 ESPJosé CasasESPSuper Ser06:04:50  +  00:04:58=33,878 
2626 ESPSantiago LazcanoESPSuper Ser06:04:50  +  00:04:58=33,878 
2727 ESPAntonio MenendezESPKas-Kaskol06:04:50  +  00:04:58=33,878 
2828 NEDFedor Iwan Den HertogNLDFrisol-G.B.C.06:04:50  +  00:04:58=33,878 
2929 PORJoaquim AgostinhoPRTSporting-Sottomayor06:04:50  +  00:04:58=33,878 
3030 BELTony HoubrechtsITABianchi-Campagnolo06:04:50  +  00:04:58=33,878 
3131 BELMichel PollentierBELCarpenter Confortluxe-Flandria06:04:50  +  00:04:58=33,878 
3232 NORKnut KnudsenITAJollyceramica06:04:50  +  00:04:58=33,878 
3333 FRAGeorges TalbourdetFRAGan-Mercier-Hutchinson06:04:50  +  00:04:58=33,878 
3434 BELRonald De WitteBELCarpenter Confortluxe-Flandria06:04:50  +  00:04:58=33,878 
3535 ESPLuis BalagueESPSuper Ser06:04:50  +  00:04:58=33,878 
3636 FRAJosé CatieauFRAPeugeot-BP-Michelin06:04:50  +  00:04:58=33,878 
3737 NEDHennie KuiperNLDFrisol-G.B.C.06:04:50  +  00:04:58=33,878 
3838 FRAGuy SibilleFRAPeugeot-BP-Michelin06:04:50  +  00:04:58=33,878 
3939 COLMartìn RodríguezITABianchi-Campagnolo06:04:50  +  00:04:58=33,878 
4040 ITAGiovanni CavalcantiITABianchi-Campagnolo06:04:50  +  00:04:58=33,878 
4141 FRAJoël MillardFRAJobo-Wolber06:04:50  +  00:04:58=33,878 
4242 FRARaymond MartinFRAGitane-Campagnolo06:04:50  +  00:04:58=33,878 
4343 ITAFabrizio FabbriITABianchi-Campagnolo06:04:50  +  00:04:58=33,878 
4444 FRAHubert MathisBELMiko-De Gribaldy06:05:24  +  00:05:32=33,826 
4545 ITAArnaldo CaverzasiITAFilotex06:05:24  +  00:05:32=33,826 
4646 ITASigfrido FontanelliITAFilotex06:05:24  +  00:05:32=33,826 
4747 NEDGerben KarstensFRAGitane-Campagnolo06:10:13  +  00:10:21=33,386 
4848 ITAAlessio AntoniniITAJollyceramica06:10:13  +  00:10:21=33,386 
4949 FRAFrancis CampanerPRTSporting-Sottomayor06:10:13  +  00:10:21=33,386 
5050 ITARenato MarchettiITAFilotex06:10:13  +  00:10:21=33,386 
5151 FRAPatrick PerretBELMiko-De Gribaldy06:10:13  +  00:10:21=33,386 
5252 ESPGonzalo AjaESPKas-Kaskol06:10:13  +  00:10:21=33,386 
5353 ESPCarlos MeleroESPKas-Kaskol06:10:13  +  00:10:21=33,386 
5454 ESPJosé-Luis ViejoESPSuper Ser06:10:13  +  00:10:21=33,386 
5555 NEDGerard VianenFRAGan-Mercier-Hutchinson06:10:13  +  00:10:21=33,386 
5656 ITASimone FraccaroITABianchi-Campagnolo06:10:13  +  00:10:21=33,386 
5757 BELJoseph SpruytITAMolteni06:10:13  +  00:10:21=33,386 
5858 FRAMichel PerinFRAGan-Mercier-Hutchinson06:10:13  +  00:10:21=33,386 
5959 ESPJosé PesarrodonaESPKas-Kaskol06:10:13  +  00:10:21=33,386 
6060 BELFrans MintjensITAMolteni06:10:13  +  00:10:21=33,386 
6161 ESPJosé GrandeESPKas-Kaskol06:10:13  +  00:10:21=33,386 
6262 BELJoseph HuysmansITAMolteni06:10:13  +  00:10:21=33,386 
6363 PORFernando FerreiraPRTSporting-Sottomayor06:10:13  +  00:10:21=33,386 
6464 BELJosé De CauwerNLDFrisol-G.B.C.06:13:50  +  00:13:58=33,063 
6565 NEDGerrie KnetemannFRAGan-Mercier-Hutchinson06:13:50  +  00:13:58=33,063 
6666 ITARoberto SorliniITAFilotex06:14:25  +  00:14:33=33,011 
6767 BELWilly TeirlinckFRAGitane-Campagnolo06:14:25  +  00:14:33=33,011 
6868 FRAMaurice Le GuillouxFRAGitane-Campagnolo06:14:25  +  00:14:33=33,011 
6969 BELLudo DelcroixITAMolteni06:14:25  +  00:14:33=33,011 
7070 FRAAndré MolletPRTSporting-Sottomayor06:14:25  +  00:14:33=33,011 
7171 FRARoger LegeayFRAJobo-Wolber06:14:25  +  00:14:33=33,011 
7272 FRACharly RouxelFRAPeugeot-BP-Michelin06:14:25  +  00:14:33=33,011 
7373 BELMarc LievensITAMolteni06:14:25  +  00:14:33=33,011 
7474 FRARegis DelepineBELCarpenter Confortluxe-Flandria06:14:25  +  00:14:33=33,011 
7575 BELMarc DemeyerBELCarpenter Confortluxe-Flandria06:14:25  +  00:14:33=33,011 
7676 ENGBarry HobanFRAGan-Mercier-Hutchinson06:14:25  +  00:14:33=33,011 
7777 FRAClaude MagniFRAJobo-Wolber06:14:25  +  00:14:33=33,011 
7878 FRAAndré CorbeauFRAJobo-Wolber06:14:25  +  00:14:33=33,011 
7979 ITAPietro DallaiITAFilotex06:14:25  +  00:14:33=33,011 
8080 FRAJean-Pierre GenetFRAGan-Mercier-Hutchinson06:14:25  +  00:14:33=33,011 
8181 FRARichard PianaroFRAJobo-Wolber06:14:25  +  00:14:33=33,011 
8282 FRAJoel HauvieuxFRAJobo-Wolber06:14:25  +  00:14:33=33,011 
8383 FRASerge ParsaniITABianchi-Campagnolo06:14:25  +  00:14:33=33,011 
8484 ITAGiacinto SantambrogioITABianchi-Campagnolo06:14:25  +  00:14:33=33,011 
8585 FRAAlain CiganaFRAJobo-Wolber06:14:25  +  00:14:33=33,011 
8686 BELWalter GodefrootBELCarpenter Confortluxe-Flandria06:14:25  +  00:14:33=33,011 
8787 BELRoger RosiersESPSuper Ser06:14:25  +  00:14:33=33,011 
8888 BELRené DillenFRAGitane-Campagnolo06:14:25  +  00:14:33=33,011 
8989 FRASylvain VasseurESPSuper Ser06:14:25  +  00:14:33=33,011 
9090 FRARégis OvionFRAPeugeot-BP-Michelin06:14:25  +  00:14:33=33,011 
9191 ITASandro QuintarelliITAJollyceramica06:14:25  +  00:14:33=33,011 
9292 BELHerman Van SpringelBELCarpenter Confortluxe-Flandria06:14:25  +  00:14:33=33,011 
9393 NEDHenk PrinsenNLDFrisol-G.B.C.06:14:25  +  00:14:33=33,011 
9494 ITAMauro SimonettiITAFilotex06:14:25  +  00:14:33=33,011 
9595 FRAGerard MoneyronBELCarpenter Confortluxe-Flandria06:14:25  +  00:14:33=33,011 
9696 BELHerman BeysensITAMolteni06:14:25  +  00:14:33=33,011 
9797 FRABernard LabourdettePRTSporting-Sottomayor06:14:25  +  00:14:33=33,011 
9898 BELAlbert Van VlierbergheBELMiko-De Gribaldy06:14:25  +  00:14:33=33,011 
9999 FRARobert MintkiewiczFRAGitane-Campagnolo06:16:31  +  00:16:39=32,827 
100100 ITALuigi CastellettiITABianchi-Campagnolo06:16:31  +  00:16:39=32,827 
101101 FRAPatrick BeonFRAPeugeot-BP-Michelin06:16:31  +  00:16:39=32,827 
102102 FRAJacques BoulasFRAJobo-Wolber06:16:31  +  00:16:39=32,827 
103103 BELFrans Van VlierbergheBELMiko-De Gribaldy06:16:31  +  00:16:39=32,827 
104104 BELRik Van LindenITABianchi-Campagnolo06:16:31  +  00:16:39=32,827 
105105 FRAJean-Claude MisacFRAGan-Mercier-Hutchinson06:16:31  +  00:16:39=32,827 
106106 BELKarel RottiersITAMolteni06:16:31  +  00:16:39=32,827 
107107 MARAntoine GutierrezBELMiko-De Gribaldy06:16:31  +  00:16:39=32,827 
108108 BELAndre DoyenBELMiko-De Gribaldy06:16:31  +  00:16:39=32,827 
109109 BELRoger LoyschBELMiko-De Gribaldy06:18:53  +  00:19:01=32,622 
110110 ITADonato GiulianiITAJollyceramica06:14:25  +  00:14:33=33,011 
111111 ITAPierino GavazziITAJollyceramica06:18:53  +  00:19:01=32,622 
112112 ITAGiacomo BazzanITAJollyceramica06:18:53  +  00:19:01=32,622 
113113 ITAGiovanni Dalla BonaITAJollyceramica06:18:53  +  00:19:01=32,622 
114114 BELWilfried DavidBELCarpenter Confortluxe-Flandria06:18:53  +  00:19:01=32,622 
115115 BELDaniel VerplanckeBELCarpenter Confortluxe-Flandria06:18:53  +  00:19:01=32,622 
116116 DENOle RitterITAFilotex06:18:53  +  00:19:01=32,622 
117117 BELEddy PeelmanESPSuper Ser06:18:53  +  00:19:01=32,622 
118118 FRAGuy LeleuFRAGitane-Campagnolo06:22:49  +  00:22:57=32,287 
119119 NEDCees PriemNLDFrisol-G.B.C.06:22:55  +  00:23:03=32,279 
120120 PORJosé AmaroPRTSporting-Sottomayor06:22:55  +  00:23:03=32,279 
121121 NEDGerard KamperNLDFrisol-G.B.C.06:22:55  +  00:23:03=32,279 
122122 AUSDonald AllanNLDFrisol-G.B.C.06:22:57  +  00:23:05=32,276 
123123 BELLucien De BrauwereBELMiko-De Gribaldy06:22:57  +  00:23:05=32,276 
124124 NEDBen KokenNLDFrisol-G.B.C.06:24:33  +  00:24:41=32,141 
125125 PORFirmino BernardinoPRTSporting-Sottomayor06:24:33  +  00:24:41=32,141 
126126 ESPJulian AndianoESPSuper Ser06:27:21  +  00:27:29=31,909 

Withdrawls: 3
 
Rider
Team
Reason
26  COLAntonio MartosESPKas-KaskolDid not finish
30  ESPJuan ZuranoESPKas-KaskolDid not finish
129  NEDTheo SmitNLDFrisol-G.B.C.Exceeded time limit
Todays birthdays.

1883  Albert Niepçeron
1911  Camille Leroy
1914  Gaston Grimbert
1940  José Momeñe
1956  Régis Clère
1957  Alfonso Dal Pian
1960  Samuel Cabrera
1967  Christophe Capelle
1976  Dimitiri Fofonov
1980  Giampaolo Caruso
1983  Jean-Marc Marino




Visits: